Time;durP1;ratioP1;P1;durP2;ratioP2;P2;SDS_P1;SDS_P2;PMS_P1;PMS_P2;Temp;Humidity;BMP_temperature;BMP_pressure;BME280_temperature;BME280_humidity;BME280_pressure;Samples;Min_cycle;Max_cycle;Signal;HPM_P1;HPM_P2
2023/01/04 00:01:14;;;;;;;12.38;2.15;;;10.40;76.40;;;9.32;60.20;101129.75;4938780;29;20058;-82
2023/01/04 00:03:42;;;;;;;11.20;1.90;;;10.40;76.50;;;9.27;59.91;101125.84;4934297;29;20075;-82
2023/01/04 00:06:13;;;;;;;8.55;1.92;;;10.40;76.00;;;9.32;60.71;101119.09;4932502;29;20044;-82
2023/01/04 00:08:40;;;;;;;9.00;2.40;;;10.40;76.90;;;9.33;60.74;101126.09;4942619;29;20047;-82
2023/01/04 00:11:11;;;;;;;6.45;1.80;;;10.40;76.90;;;9.37;60.85;101116.72;4935275;29;20498;-82
2023/01/04 00:13:40;;;;;;;;;;;10.40;77.10;;;9.39;60.35;101102.22;4932455;29;20047;-82
2023/01/04 00:16:11;;;;;;;6.63;1.70;;;10.40;76.60;;;9.35;60.09;101100.13;4954279;28;19942;-82
2023/01/04 00:18:39;;;;;;;5.80;1.88;;;10.40;76.40;;;9.38;60.10;101095.25;4944611;29;20043;-82
2023/01/04 00:21:10;;;;;;;9.93;2.00;;;10.40;76.60;;;9.35;60.36;101087.63;4933187;29;20044;-83
2023/01/04 00:23:38;;;;;;;7.03;2.05;;;10.40;76.60;;;9.31;60.65;101086.34;4941926;29;20053;-82
2023/01/04 00:26:10;;;;;;;6.25;1.70;;;10.40;76.80;;;9.32;60.29;101084.50;4940921;28;20066;-82
2023/01/04 00:28:38;;;;;;;9.45;2.15;;;10.40;76.60;;;9.37;60.12;101084.75;4937781;29;20043;-82
2023/01/04 00:31:09;;;;;;;7.28;2.03;;;10.40;76.60;;;9.37;60.11;101074.13;4931643;29;20055;-82
2023/01/04 00:33:37;;;;;;;8.43;2.20;;;10.40;76.40;;;9.36;60.30;101070.63;4938472;29;20122;-81
2023/01/04 00:36:06;;;;;;;5.80;1.73;;;10.40;76.50;;;9.35;60.24;101057.53;4950717;28;20055;-85
2023/01/04 00:38:34;;;;;;;8.45;2.35;;;10.40;76.60;;;9.34;60.37;101062.03;4955265;28;20048;-82
2023/01/04 00:41:01;;;;;;;7.28;1.70;;;10.40;76.70;;;9.35;60.60;101052.19;4935129;29;20039;-82
2023/01/04 00:43:29;;;;;;;9.23;2.20;;;10.40;76.90;;;9.37;60.73;101060.81;4936221;28;20091;-82
2023/01/04 00:45:56;;;;;;;5.40;1.60;;;10.40;77.00;;;9.42;60.72;101048.59;4934772;28;20059;-82
2023/01/04 00:48:25;;;;;;;6.97;1.75;;;10.50;77.10;;;9.41;61.07;101041.59;4929658;29;20120;-82
2023/01/04 00:50:52;;;;;;;7.47;2.00;;;10.50;77.50;;;9.43;61.39;101038.78;4927562;29;20043;-82
2023/01/04 00:53:19;;;;;;;8.40;2.05;;;10.50;77.80;;;9.44;62.03;101032.44;4934279;29;20054;-82
2023/01/04 00:55:47;;;;;;;9.05;1.70;;;10.50;78.40;;;9.44;62.16;101037.75;4945342;28;20055;-82
2023/01/04 00:58:14;;;;;;;7.50;1.80;;;10.50;78.60;;;9.46;62.42;101028.56;4929150;29;20040;-82
2023/01/04 01:00:41;;;;;;;7.78;1.85;;;10.50;79.00;;;9.43;62.57;101023.63;4935433;28;20379;-82
2023/01/04 01:03:08;;;;;;;7.30;1.85;;;10.50;78.80;;;9.43;62.98;101022.81;4940856;28;20087;-81
2023/01/04 01:05:37;;;;;;;6.78;2.08;;;10.50;79.40;;;9.34;63.37;101013.28;4926529;29;20046;-82
2023/01/04 01:10:46;;;;;;;;;;;10.50;80.30;;;9.38;63.86;100993.28;4925582;28;20526;-82
2023/01/04 01:13:13;;;;;;;4.82;1.70;;;10.50;80.60;;;9.37;64.16;100989.78;4939708;29;19934;-82
2023/01/04 01:15:40;;;;;;;7.38;2.10;;;10.50;80.90;;;9.34;64.53;100990.16;4928002;28;20142;-82
2023/01/04 01:18:08;;;;;;;11.43;2.50;;;10.40;81.20;;;9.39;64.82;100985.09;4926152;29;20048;-82
2023/01/04 01:20:42;;;;;;;11.70;2.67;;;10.40;81.60;;;9.34;65.16;100989.34;4927274;29;20031;-82
2023/01/04 01:23:12;;;;;;;8.88;1.98;;;10.40;82.00;;;9.29;65.97;100976.59;4955199;28;20601;-82
2023/01/04 01:25:39;;;;;;;13.02;2.20;;;10.40;82.50;;;9.30;65.60;100986.22;4926983;29;20055;-82
2023/01/04 01:28:07;;;;;;;8.73;2.13;;;10.40;82.30;;;9.35;65.64;100980.31;4937331;29;20052;-82
2023/01/04 01:30:34;;;;;;;7.85;2.00;;;10.40;82.50;;;9.40;65.40;100960.09;4931692;29;20035;-81
2023/01/04 01:33:01;;;;;;;8.00;1.90;;;10.50;82.50;;;9.42;65.65;100968.75;4942399;29;20051;-82
2023/01/04 01:35:28;;;;;;;6.28;1.85;;;10.50;82.70;;;9.40;65.93;100959.28;4954245;28;20058;-82
2023/01/04 01:37:57;;;;;;;8.48;2.00;;;10.50;83.00;;;9.39;66.21;100954.97;4938463;29;20044;-82
2023/01/04 01:40:24;;;;;;;7.45;2.03;;;10.50;83.10;;;9.38;66.20;100951.50;4942952;28;20408;-82
2023/01/04 01:42:52;;;;;;;8.23;1.65;;;10.50;83.30;;;9.39;66.20;100950.47;4931771;29;20426;-82
2023/01/04 01:45:31;;;;;;;8.43;2.10;;;10.50;83.40;;;9.41;66.43;100944.94;4935292;29;20050;-82
2023/01/04 01:48:06;;;;;;;7.03;1.95;;;10.50;83.50;;;9.41;66.22;100939.63;4929621;29;20051;-82
2023/01/04 01:50:39;;;;;;;11.35;2.13;;;10.40;83.70;;;9.41;66.42;100947.63;4932141;29;20746;-82
2023/01/04 01:53:10;;;;;;;12.13;2.00;;;10.40;83.90;;;9.40;66.48;100940.66;4938438;29;20054;-82
2023/01/04 01:55:40;;;;;;;;;;;10.40;83.90;;;9.41;66.59;100950.28;4942739;29;20054;-82
2023/01/04 01:58:09;;;;;;;9.30;2.00;;;10.40;84.10;;;9.41;66.86;100940.44;4930234;29;19933;-82
2023/01/04 02:00:36;;;;;;;8.20;1.88;;;10.40;84.20;;;9.42;66.49;100935.94;4936893;29;20615;-82
2023/01/04 02:03:15;;;;;;;8.25;1.92;;;10.40;84.20;;;9.46;67.00;100946.03;4934478;29;20052;-82
2023/01/04 02:05:45;;;;;;;9.90;2.17;;;10.50;84.60;;;9.38;67.26;100940.03;4974173;28;20060;-82
2023/01/04 02:08:14;;;;;;;9.95;2.25;;;10.30;84.80;;;9.38;67.34;100935.53;4936264;29;20039;-82
2023/01/04 02:10:41;;;;;;;10.13;2.05;;;10.40;85.00;;;9.29;68.00;100942.81;4931292;29;20044;-82
2023/01/04 02:13:12;;;;;;;6.00;1.80;;;10.40;85.30;;;9.36;67.81;100937.53;4927785;29;20048;-82
2023/01/04 02:15:56;;;;;;;9.48;2.10;;;10.40;85.40;;;9.39;68.05;100942.50;4942862;28;20056;-82
2023/01/04 02:18:33;;;;;;;10.13;2.33;;;10.40;85.70;;;9.41;68.06;100928.97;4927323;29;20095;-82
2023/01/04 02:21:05;;;;;;;6.78;2.00;;;10.40;85.70;;;9.42;68.13;100934.13;4932647;29;20047;-82
2023/01/04 02:24:41;;;;;;;9.68;2.13;;;10.40;85.70;;;9.36;68.66;100928.72;4937391;29;20053;-82
2023/01/04 02:27:49;;;;;;;8.52;2.42;;;10.40;86.30;;;9.29;69.08;100923.38;4931043;29;20062;-82
2023/01/04 02:31:10;;;;;;;9.90;1.95;;;10.40;86.70;;;9.29;69.30;100910.88;4918626;29;20071;-82
2023/01/04 02:33:51;;;;;;;5.18;1.83;;;10.40;86.90;;;9.27;69.32;100920.91;4932385;29;20047;-82
2023/01/04 02:36:30;;;;;;;6.07;1.80;;;10.30;87.20;;;9.32;69.33;100916.81;4926190;29;20051;-82
2023/01/04 02:39:10;;;;;;;7.35;1.90;;;10.30;87.20;;;9.33;69.27;100913.97;4930816;29;20496;-82
2023/01/04 02:41:47;;;;;;;8.95;2.22;;;10.40;87.40;;;9.26;69.82;100905.09;4960122;28;20146;-82
2023/01/04 02:47:09;;;;;;;10.70;2.10;;;10.40;87.70;;;9.28;69.93;100892.44;4934320;29;20043;-81
2023/01/04 02:52:28;;;;;;;7.05;1.77;;;10.40;87.40;;;9.35;69.75;100882.66;4942091;29;20067;-82
2023/01/04 02:54:57;;;;;;;6.80;1.88;;;10.50;87.50;;;9.37;69.85;100891.28;4941573;29;20054;-82
2023/01/04 02:57:48;;;;;;;8.55;2.10;;;10.40;87.80;;;9.34;69.99;100898.84;4930768;29;20056;-82
2023/01/04 03:06:37;;;;;;;7.05;1.90;;;10.40;88.30;;;9.27;70.84;100873.00;4929435;29;20090;-82
2023/01/04 03:09:11;;;;;;;5.32;1.80;;;10.40;88.60;;;9.35;70.53;100879.19;4930819;29;20043;-82
2023/01/04 03:14:36;;;;;;;8.60;2.25;;;10.40;88.40;;;9.40;70.37;100866.13;4919389;29;20134;-82
2023/01/04 03:17:10;;;;;;;8.10;2.08;;;10.40;88.40;;;9.42;70.44;100866.72;4945070;28;20063;-82
2023/01/04 03:19:53;;;;;;;10.45;2.20;;;10.40;88.60;;;9.40;70.84;100864.28;4947552;29;20047;-82
2023/01/04 03:37:04;;;;;;;8.95;1.90;;;10.50;88.70;;;9.45;70.61;100829.09;4922067;29;20095;-82
2023/01/04 03:48:28;;;;;;;9.27;2.33;;;10.60;88.80;;;9.52;70.63;100832.63;4923919;29;20487;-82
2023/01/04 03:51:04;;;;;;;9.32;2.17;;;10.50;88.70;;;9.52;70.70;100836.09;4936728;29;20047;-82
2023/01/04 03:53:38;;;;;;;9.45;2.20;;;10.50;88.70;;;9.53;70.60;100827.09;4943034;28;20410;-82
2023/01/04 03:56:10;;;;;;;8.10;2.22;;;10.60;88.80;;;9.53;70.56;100818.28;4926779;29;20519;-82
2023/01/04 03:58:40;;;;;;;6.65;2.38;;;10.60;88.70;;;9.49;70.75;100815.19;4933574;29;20044;-82
2023/01/04 04:01:07;;;;;;;7.75;2.05;;;10.60;88.90;;;9.52;70.85;100814.81;4971954;28;20126;-82
2023/01/04 04:09:08;;;;;;;6.30;1.88;;;10.60;89.00;;;9.60;70.79;100799.69;4929642;29;20044;-82
2023/01/04 04:11:35;;;;;;;7.97;2.08;;;10.60;88.90;;;9.63;70.50;100799.28;4932980;29;20039;-82
2023/01/04 04:14:02;;;;;;;8.48;1.80;;;10.60;88.90;;;9.62;70.83;100802.97;4938043;28;20039;-82
2023/01/04 04:16:29;;;;;;;7.70;2.00;;;10.60;89.10;;;9.64;70.58;100788.44;4965940;28;20516;-82
2023/01/04 04:18:56;;;;;;;5.30;1.92;;;10.60;89.00;;;9.62;70.85;100787.00;4939781;28;20047;-82
2023/01/04 04:21:23;;;;;;;9.82;2.20;;;10.60;89.10;;;9.62;70.80;100771.84;4937239;28;20047;-82
2023/01/04 04:23:51;;;;;;;9.13;1.77;;;10.60;88.90;;;9.61;70.90;100786.16;4928753;28;20426;-82
2023/01/04 04:26:19;;;;;;;6.13;1.55;;;10.60;89.00;;;9.65;70.81;100779.44;4934676;29;20291;-82
2023/01/04 04:28:46;;;;;;;8.57;1.70;;;10.60;89.00;;;9.64;70.86;100775.13;4935066;28;20044;-82
2023/01/04 04:31:14;;;;;;;5.45;1.67;;;10.60;89.10;;;9.68;70.75;100773.72;4940934;28;20051;-82
2023/01/04 04:33:41;;;;;;;5.28;1.60;;;10.70;89.10;;;9.69;70.94;100775.34;4936899;29;20532;-82
2023/01/04 04:36:09;;;;;;;4.95;1.70;;;10.70;89.30;;;9.66;70.94;100767.78;4928216;29;21042;-82
2023/01/04 04:38:36;;;;;;;5.63;1.50;;;10.70;89.30;;;9.67;71.04;100763.28;4929273;29;20051;-82
2023/01/04 04:43:55;;;;;;;7.25;1.90;;;10.70;89.30;;;9.64;71.47;100759.16;4936798;28;20054;-81
2023/01/04 04:46:22;;;;;;;3.90;1.20;;;10.70;89.50;;;9.69;71.41;100745.25;4928800;29;20044;-82
2023/01/04 04:48:50;;;;;;;5.60;1.33;;;11.00;89.80;;;9.62;71.91;100745.22;4946082;29;20043;-82
2023/01/04 04:51:17;;;;;;;5.85;1.38;;;10.70;90.40;;;9.55;72.44;100745.16;4939699;28;20040;-82
2023/01/04 04:53:44;;;;;;;4.57;1.23;;;10.80;90.80;;;9.60;72.34;100747.25;4931167;29;21228;-83
2023/01/04 04:56:12;;;;;;;4.93;1.20;;;10.60;90.70;;;9.63;72.22;100743.38;4938848;29;20058;-82
2023/01/04 04:58:39;;;;;;;3.90;1.30;;;10.60;90.50;;;9.66;72.40;100740.28;4934213;29;20128;-83
2023/01/04 05:01:09;;;;;;;5.18;1.10;;;10.70;91.00;;;9.66;72.41;100742.97;4925504;29;20054;-81
2023/01/04 05:03:36;;;;;;;4.43;1.10;;;10.70;91.00;;;9.67;72.40;100721.47;4952777;28;20421;-84
2023/01/04 05:06:04;;;;;;;2.83;1.27;;;10.70;90.90;;;9.67;72.49;100724.13;4925902;29;20420;-86
2023/01/04 05:08:31;;;;;;;6.47;1.10;;;10.70;91.20;;;9.66;72.64;100711.84;4926559;29;20043;-87
2023/01/04 05:10:58;;;;;;;3.28;1.10;;;10.70;91.40;;;9.67;72.77;100720.66;4947931;28;20488;-86
2023/01/04 05:13:25;;;;;;;3.95;1.42;;;10.70;91.60;;;9.70;72.93;100729.06;4938176;28;20046;-86
2023/01/04 05:15:54;;;;;;;2.58;1.00;;;10.70;91.60;;;9.70;73.22;100712.25;4924513;29;20555;-86
2023/01/04 05:18:22;;;;;;;3.25;1.20;;;10.80;92.20;;;9.68;73.48;100712.47;4924830;29;20046;-87
2023/01/04 05:20:50;;;;;;;3.25;1.00;;;10.70;92.20;;;9.69;73.56;100714.09;4933533;29;20031;-86
2023/01/04 05:23:20;;;;;;;2.33;0.90;;;10.70;92.40;;;9.72;73.85;100707.56;4942849;28;20035;-86
2023/01/04 05:25:52;;;;;;;3.03;0.82;;;10.70;92.50;;;9.74;74.01;100701.00;4934138;29;20077;-87
2023/01/04 05:28:20;;;;;;;2.60;0.75;;;10.70;92.90;;;9.75;74.10;100686.66;4932099;29;20144;-86
2023/01/04 05:30:52;;;;;;;4.10;0.90;;;10.70;92.80;;;9.77;74.19;100686.47;4946489;29;20040;-87
2023/01/04 05:33:23;;;;;;;3.28;1.05;;;10.80;92.90;;;9.74;74.34;100678.88;4962612;28;20056;-86
2023/01/04 05:35:52;;;;;;;1.70;0.73;;;10.80;93.20;;;9.78;74.32;100686.28;4931499;29;20054;-86
2023/01/04 05:38:19;;;;;;;1.85;0.70;;;10.80;93.00;;;9.78;74.24;100686.28;4939402;29;20788;-86
2023/01/04 05:40:47;;;;;;;3.63;0.85;;;10.80;93.20;;;9.80;74.24;100684.22;4938150;29;20590;-86
2023/01/04 05:43:14;;;;;;;1.58;0.68;;;10.80;93.30;;;9.80;74.44;100686.06;4953602;28;20040;-86
2023/01/04 05:45:43;;;;;;;1.75;0.88;;;10.70;93.20;;;9.82;74.30;100693.88;4962042;28;20039;-86
2023/01/04 05:48:11;;;;;;;1.55;0.60;;;10.80;93.10;;;9.82;74.59;100685.88;4949924;28;20047;-87
2023/01/04 05:50:39;;;;;;;2.70;0.80;;;10.90;93.20;;;9.83;74.42;100690.19;4935645;29;20055;-85
2023/01/04 05:53:10;;;;;;;3.17;1.00;;;10.80;93.20;;;9.82;74.44;100670.72;4930949;29;20047;-82
2023/01/04 05:55:37;;;;;;;1.92;0.70;;;10.80;93.20;;;9.84;74.61;100666.00;4936898;29;20044;-87
2023/01/04 05:58:05;;;;;;;2.45;0.90;;;10.80;93.20;;;9.86;74.40;100669.28;4935757;28;20054;-88
2023/01/04 06:00:33;;;;;;;2.63;0.90;;;11.10;93.40;;;9.88;74.28;100667.25;4954582;28;20043;-90
2023/01/04 06:03:00;;;;;;;2.53;0.90;;;10.90;93.40;;;9.90;74.58;100661.69;4974268;28;20051;-89
2023/01/04 06:05:27;;;;;;;3.28;0.90;;;10.90;93.20;;;9.91;74.44;100658.03;4961487;28;20095;-90
2023/01/04 06:07:56;;;;;;;3.05;0.90;;;10.90;93.20;;;9.95;74.34;100664.56;4934661;29;20048;-90
2023/01/04 06:10:23;;;;;;;2.95;1.08;;;10.90;93.20;;;9.97;74.42;100658.03;4947802;28;20052;-90
2023/01/04 06:12:50;;;;;;;2.28;0.90;;;10.90;93.30;;;10.01;74.15;100664.59;4944096;28;20043;-90
2023/01/04 06:15:18;;;;;;;3.33;1.10;;;11.00;93.10;;;10.02;74.00;100652.09;4945847;28;20047;-91
2023/01/04 06:17:45;;;;;;;2.50;0.88;;;11.00;93.20;;;10.01;73.84;100653.13;4942914;28;20071;-91
2023/01/04 06:20:12;;;;;;;3.15;0.90;;;11.00;93.00;;;10.02;74.07;100644.09;4936985;28;20082;-90
2023/01/04 06:22:41;;;;;;;4.03;0.90;;;11.00;93.00;;;10.04;74.00;100642.06;4974225;28;20047;-90
2023/01/04 06:25:10;;;;;;;2.63;0.80;;;11.00;93.00;;;10.06;73.87;100637.34;4947830;28;20052;-89
2023/01/04 06:27:38;;;;;;;3.13;0.85;;;11.00;92.90;;;10.09;73.74;100641.44;4945121;28;20502;-89
2023/01/04 06:30:06;;;;;;;2.13;0.80;;;11.00;92.80;;;10.09;73.87;100636.94;4956185;28;20708;-90
2023/01/04 06:32:34;;;;;;;1.20;0.60;;;11.10;93.00;;;10.12;73.87;100633.88;4959019;28;20090;-89
2023/01/04 06:35:01;;;;;;;2.83;1.00;;;11.10;92.90;;;10.13;73.73;100635.50;4962450;28;20461;-88
2023/01/04 06:37:37;;;;;;;2.80;0.85;;;11.10;92.90;;;10.13;73.84;100619.50;4958216;28;20046;-95
2023/01/04 06:40:05;;;;;;;4.07;1.42;;;11.10;92.90;;;10.17;73.73;100620.75;4949851;28;20040;-91
2023/01/04 06:42:46;;;;;;;2.05;0.80;;;11.10;92.90;;;10.19;73.66;100625.88;4928387;29;20058;-90
2023/01/04 06:45:15;;;;;;;2.38;0.85;;;11.20;92.80;;;10.21;74.00;100624.66;4950723;28;20250;-90
2023/01/04 06:47:42;;;;;;;2.00;0.77;;;11.20;92.90;;;10.20;73.59;100624.84;4934135;28;20054;-89
2023/01/04 06:50:10;;;;;;;1.88;0.80;;;11.20;92.80;;;10.15;73.97;100620.16;4957255;28;20650;-89
2023/01/04 06:52:37;;;;;;;1.80;0.77;;;11.20;93.00;;;10.15;74.10;100622.81;4955741;28;20052;-90
2023/01/04 06:55:09;;;;;;;2.38;0.88;;;11.20;93.00;;;10.15;74.21;100632.63;4939279;28;20047;-90
2023/01/04 06:57:38;;;;;;;2.70;0.90;;;11.20;93.30;;;10.16;74.20;100623.63;4932371;29;20043;-90
2023/01/04 07:00:08;;;;;;;2.97;1.05;;;11.10;93.40;;;10.17;74.31;100620.75;4938828;29;20061;-90
2023/01/04 07:02:35;;;;;;;2.20;0.70;;;11.20;93.40;;;10.19;74.35;100617.88;4955857;28;20048;-88
2023/01/04 07:05:03;;;;;;;1.73;0.80;;;11.20;93.40;;;10.22;74.30;100628.13;4928759;29;20049;-91
2023/01/04 07:07:32;;;;;;;3.40;0.70;;;11.20;93.40;;;10.23;74.11;100635.09;4942006;28;20071;-88
2023/01/04 07:09:59;;;;;;;2.90;0.82;;;11.20;93.30;;;10.24;74.20;100621.59;4943073;28;20052;-89
2023/01/04 07:12:27;;;;;;;2.67;0.82;;;11.20;93.30;;;10.26;74.06;100614.22;4928715;29;20059;-89
2023/01/04 07:14:55;;;;;;;3.95;0.82;;;11.20;93.30;;;10.25;74.16;100609.91;4939375;28;20075;-89
2023/01/04 07:17:23;;;;;;;2.83;0.80;;;11.30;93.40;;;10.26;73.90;100626.72;4954238;28;20062;-91
2023/01/04 07:19:50;;;;;;;2.30;0.70;;;11.30;93.30;;;10.27;74.01;100621.19;4925498;29;20134;-90
2023/01/04 07:22:18;;;;;;;1.77;0.80;;;11.30;93.40;;;10.27;73.97;100625.69;4942268;28;20043;-89
2023/01/04 07:24:45;;;;;;;2.10;0.70;;;11.20;93.20;;;10.27;74.25;100618.53;4957011;28;20079;-90
2023/01/04 07:27:12;;;;;;;2.33;0.70;;;11.30;93.60;;;10.28;74.52;100616.69;4943805;28;20048;-89
2023/01/04 07:29:42;;;;;;;3.40;0.80;;;11.20;93.60;;;10.30;74.15;100634.13;4927497;29;20474;-91
2023/01/04 07:32:11;;;;;;;1.70;0.70;;;11.30;93.60;;;10.30;74.35;100628.78;4936381;29;20241;-91
2023/01/04 07:34:39;;;;;;;1.55;0.70;;;11.30;93.50;;;10.30;74.29;100626.13;4939253;29;20110;-91
2023/01/04 07:37:09;;;;;;;1.95;0.80;;;11.30;93.60;;;10.34;74.20;100639.84;4946425;28;20066;-90
2023/01/04 07:39:36;;;;;;;3.03;0.80;;;11.30;93.60;;;10.36;74.48;100637.81;4949200;28;20133;-90
2023/01/04 07:42:03;;;;;;;2.22;0.88;;;11.30;93.70;;;10.32;74.58;100640.06;4949048;28;20043;-89
2023/01/04 07:44:31;;;;;;;4.57;1.30;;;11.30;93.70;;;10.34;74.31;100647.84;4952699;28;20055;-89
2023/01/04 07:46:58;;;;;;;2.58;0.93;;;11.30;93.80;;;10.35;74.64;100636.16;4930496;29;20051;-90
2023/01/04 07:49:27;;;;;;;2.47;0.90;;;11.30;93.90;;;10.36;74.38;100629.00;4954488;28;20051;-90
2023/01/04 07:51:54;;;;;;;2.35;0.98;;;11.40;93.90;;;10.34;74.58;100607.03;4936696;29;20071;-88
2023/01/04 07:54:22;;;;;;;2.45;1.10;;;11.30;94.00;;;10.38;74.84;100610.94;4936281;29;20055;-88
2023/01/04 07:56:50;;;;;;;7.45;2.25;;;11.40;94.10;;;10.38;74.73;100618.94;4949579;28;20450;-88
2023/01/04 07:59:19;;;;;;;3.95;1.85;;;11.40;94.00;;;10.38;74.61;100610.94;4950364;28;20616;-89
2023/01/04 08:01:47;;;;;;;2.40;1.17;;;11.30;93.80;;;10.39;74.52;100597.38;4962633;28;20047;-89
2023/01/04 08:04:16;;;;;;;5.13;1.25;;;11.30;93.90;;;10.40;74.63;100612.38;4946258;28;20067;-88
2023/01/04 08:06:46;;;;;;;2.17;1.05;;;11.40;94.00;;;10.42;74.36;100604.97;4952964;28;20043;-85
2023/01/04 08:09:13;;;;;;;3.47;1.40;;;11.40;93.80;;;10.44;74.53;100597.59;4939802;29;20052;-87
2023/01/04 08:11:40;;;;;;;2.78;1.48;;;11.40;93.80;;;10.47;74.30;100607.03;4933177;29;20062;-87
2023/01/04 08:14:08;;;;;;;2.72;1.23;;;11.50;93.70;;;10.47;74.22;100602.50;4934743;29;20056;-90
2023/01/04 08:16:37;;;;;;;2.40;1.20;;;11.50;93.70;;;10.51;74.20;100589.59;4945426;28;20050;-88
2023/01/04 08:19:08;;;;;;;2.10;1.00;;;11.40;93.60;;;10.54;74.23;100605.16;4960370;28;20058;-87
2023/01/04 08:21:38;;;;;;;5.00;1.30;;;11.50;93.60;;;10.55;74.22;100609.50;4948092;28;20442;-86
2023/01/04 08:24:07;;;;;;;2.92;1.08;;;11.50;93.60;;;10.54;74.14;100605.16;4931023;29;20118;-86
2023/01/04 08:26:34;;;;;;;2.03;0.88;;;11.50;93.60;;;10.56;74.06;100611.94;4932210;29;20042;-89
2023/01/04 08:29:01;;;;;;;3.05;0.88;;;11.60;93.40;;;10.53;74.41;100590.19;4935391;29;20043;-85
2023/01/04 08:31:32;;;;;;;3.63;0.85;;;11.50;93.60;;;10.55;74.25;100586.31;4934152;29;20138;-81
2023/01/04 08:34:03;;;;;;;1.80;0.87;;;11.50;93.60;;;10.55;74.11;100582.81;4962254;28;20059;-80
2023/01/04 08:36:33;;;;;;;3.22;1.10;;;11.50;93.20;;;10.54;74.21;100574.00;4928542;29;20296;-81
2023/01/04 08:39:03;;;;;;;3.47;0.90;;;11.60;93.20;;;10.57;74.00;100556.75;4933428;28;20705;-81
2023/01/04 08:41:49;;;;;;;5.27;1.20;;;11.60;93.20;;;10.60;74.30;100559.00;4931012;29;20043;-83
2023/01/04 08:44:17;;;;;;;3.22;0.93;;;11.60;93.20;;;10.59;74.03;100552.03;4960458;28;20470;-83
2023/01/04 08:46:48;;;;;;;1.85;0.70;;;11.60;93.20;;;10.63;73.88;100555.91;4965188;28;20469;-82
2023/01/04 08:49:18;;;;;;;3.92;1.35;;;11.60;93.30;;;10.65;73.98;100547.72;4930481;29;20056;-82
2023/01/04 08:51:46;;;;;;;2.28;0.70;;;11.60;93.00;;;10.67;73.99;100551.78;4936704;29;20482;-82
2023/01/04 08:54:16;;;;;;;2.20;0.80;;;11.60;93.20;;;10.67;73.81;100546.47;4946402;28;21270;-84
2023/01/04 08:56:45;;;;;;;3.65;0.80;;;11.60;93.00;;;10.68;74.08;100558.75;4959833;28;20058;-82
2023/01/04 08:59:13;;;;;;;4.47;0.90;;;11.60;93.30;;;10.68;73.79;100557.94;4931542;29;20051;-82
2023/01/04 09:01:41;;;;;;;1.80;0.60;;;11.70;93.20;;;10.72;74.00;100561.84;4947012;28;20502;-82
2023/01/04 09:04:09;;;;;;;2.83;1.00;;;11.70;93.40;;;10.69;74.15;100557.75;4936806;29;20497;-82
2023/01/04 09:06:38;;;;;;;2.80;0.77;;;11.70;93.30;;;10.72;73.93;100556.50;4933493;29;20067;-79
2023/01/04 09:09:06;;;;;;;3.55;0.95;;;11.70;93.20;;;10.73;74.07;100545.63;4933699;29;20058;-81
2023/01/04 09:11:34;;;;;;;5.70;1.00;;;11.70;93.40;;;10.76;74.09;100537.19;4929912;29;20050;-81
2023/01/04 09:14:02;;;;;;;2.90;0.80;;;11.70;93.60;;;10.77;74.26;100546.03;4940805;29;20513;-82
2023/01/04 09:16:29;;;;;;;3.88;0.80;;;11.70;93.50;;;10.76;74.11;100561.22;4945410;29;20051;-82
2023/01/04 09:18:59;;;;;;;5.25;1.15;;;11.70;93.40;;;10.76;74.13;100545.22;4946204;29;20050;-80
2023/01/04 09:21:26;;;;;;;2.97;0.90;;;11.70;93.50;;;10.79;74.11;100549.31;4937373;29;20039;-83
2023/01/04 09:23:53;;;;;;;2.47;0.82;;;11.70;93.40;;;10.80;74.41;100551.75;4946846;28;20497;-82
2023/01/04 09:26:23;;;;;;;2.85;0.95;;;11.80;93.60;;;10.78;74.44;100539.66;4932178;29;20071;-89
2023/01/04 09:28:52;;;;;;;3.63;0.90;;;11.80;93.60;;;10.79;74.59;100544.78;4929918;29;20503;-82
2023/01/04 09:31:22;;;;;;;3.20;0.90;;;11.80;93.70;;;10.79;74.68;100539.47;4933342;29;20050;-90
2023/01/04 09:33:51;;;;;;;3.50;0.90;;;11.80;93.80;;;10.82;74.45;100538.19;4963797;28;20048;-90
2023/01/04 09:36:19;;;;;;;4.05;0.88;;;11.80;93.80;;;10.79;74.45;100549.31;4971423;28;20514;-86
2023/01/04 09:38:47;;;;;;;6.07;1.13;;;11.80;93.60;;;10.82;74.56;100543.53;4951255;28;20043;-87
2023/01/04 09:41:24;;;;;;;4.10;1.00;;;11.80;93.90;;;10.83;74.87;100553.19;4949296;28;20043;-88
2023/01/04 09:43:53;;;;;;;2.08;0.90;;;11.90;94.50;;;10.83;75.04;100532.69;4952806;28;20047;-89
2023/01/04 09:46:32;;;;;;;3.60;0.80;;;11.80;94.50;;;10.80;75.18;100541.09;4957871;28;20113;-89
2023/01/04 09:49:16;;;;;;;2.95;1.00;;;11.80;94.40;;;10.82;75.36;100562.22;4966971;28;20083;-89
2023/01/04 09:51:53;;;;;;;3.17;1.10;;;11.80;94.60;;;10.79;75.37;100558.13;4945928;29;20047;-89
2023/01/04 09:54:23;;;;;;;2.17;0.85;;;11.80;94.70;;;10.76;75.66;100566.53;4934758;29;20099;-88
2023/01/04 09:56:54;;;;;;;3.38;1.00;;;11.80;94.60;;;10.80;75.46;100569.63;4934642;29;20129;-87
2023/01/04 09:59:27;;;;;;;;;;;11.80;94.70;;;10.80;75.24;100556.28;4931699;29;20052;-87
2023/01/04 10:02:03;;;;;;;3.38;0.95;;;11.80;94.80;;;10.77;75.78;100543.34;4947672;29;20505;-88
2023/01/04 10:04:44;;;;;;;4.57;1.00;;;11.80;94.80;;;10.80;75.56;100535.75;4930934;29;20129;-89
2023/01/04 10:07:21;;;;;;;4.00;1.08;;;11.80;94.90;;;10.82;75.54;100556.88;4946659;29;20046;-88
2023/01/04 10:09:48;;;;;;;4.80;1.10;;;11.80;95.00;;;10.79;75.50;100560.00;4928385;29;20162;-87
2023/01/04 10:12:33;;;;;;;3.65;1.00;;;11.80;94.90;;;10.83;75.67;100566.50;4927763;29;20574;-86
2023/01/04 10:15:23;;;;;;;4.00;1.00;;;11.80;95.10;;;10.82;75.88;100547.03;4920897;29;20051;-88
2023/01/04 10:18:17;;;;;;;5.10;1.08;;;11.80;95.30;;;10.85;75.69;100543.13;4947213;28;20155;-88
2023/01/04 10:21:08;;;;;;;5.03;1.20;;;11.80;95.20;;;10.85;75.83;100543.13;4931275;29;20052;-88
2023/01/04 10:23:54;;;;;;;4.80;1.20;;;11.80;95.40;;;10.83;76.01;100545.16;4929046;29;20052;-87
2023/01/04 10:26:30;;;;;;;4.47;1.17;;;11.80;95.30;;;10.84;75.75;100546.84;4938167;29;20050;-87
2023/01/04 10:29:38;;;;;;;2.80;1.13;;;11.90;95.60;;;10.86;76.12;100544.75;4961993;28;20126;-87
2023/01/04 10:32:19;;;;;;;2.47;0.90;;;11.80;95.70;;;10.85;76.00;100535.13;4945989;29;20052;-87
2023/01/04 10:34:49;;;;;;;6.82;1.00;;;11.80;95.70;;;10.86;76.17;100542.09;4960897;28;20640;-89
2023/01/04 10:37:20;;;;;;;7.13;1.20;;;11.90;95.80;;;10.88;76.33;100539.19;4961560;28;20048;-89
2023/01/04 10:39:56;;;;;;;5.68;1.10;;;11.90;96.00;;;10.91;76.16;100525.44;4943087;29;20298;-89
2023/01/04 10:42:33;;;;;;;3.42;1.00;;;11.90;96.00;;;10.90;76.25;100526.50;4963231;28;20081;-89
2023/01/04 10:45:15;;;;;;;2.65;1.45;;;11.90;96.10;;;10.87;76.22;100516.22;4960549;28;20102;-88
2023/01/04 10:47:56;;;;;;;3.22;1.00;;;11.80;96.00;;;10.85;76.35;100515.63;4968773;28;20074;-88
2023/01/04 10:50:35;;;;;;;3.47;1.30;;;11.80;96.00;;;10.82;76.50;100515.00;4962332;28;20391;-87
2023/01/04 10:53:07;;;;;;;6.05;1.20;;;11.80;96.10;;;10.83;76.53;100516.66;4932058;29;20074;-89
2023/01/04 10:55:44;;;;;;;2.97;1.10;;;11.80;96.20;;;10.81;76.78;100516.03;4953695;28;20087;-88
2023/01/04 10:58:17;;;;;;;3.80;1.02;;;11.80;96.30;;;10.82;76.69;100517.69;4959820;28;20050;-88
2023/01/04 11:00:50;;;;;;;6.15;1.30;;;11.80;96.40;;;10.86;76.80;100507.41;4944090;29;20043;-87
2023/01/04 11:03:24;;;;;;;4.40;1.58;;;11.80;96.40;;;10.85;76.97;100505.78;4927209;29;20135;-88
2023/01/04 11:06:01;;;;;;;4.60;1.30;;;11.90;96.60;;;10.91;76.66;100501.44;4924716;29;20094;-88
2023/01/04 11:08:37;;;;;;;9.73;4.10;;;11.90;96.60;;;10.92;76.81;100495.06;4954677;28;20668;-90
2023/01/04 11:11:10;;;;;;;4.53;1.80;;;11.90;96.40;;;10.96;76.84;100501.63;4930142;29;20048;-89
2023/01/04 11:13:38;;;;;;;5.13;1.70;;;11.90;96.50;;;10.94;76.57;100493.84;4945224;29;20043;-88
2023/01/04 11:16:07;;;;;;;3.30;1.20;;;11.90;96.40;;;10.94;76.55;100488.50;4954499;28;20059;-87
2023/01/04 11:18:39;;;;;;;7.95;1.42;;;11.90;96.50;;;10.97;76.44;100487.22;4936903;28;20146;-81
2023/01/04 11:21:13;;;;;;;5.72;1.95;;;12.00;96.40;;;10.97;76.58;100485.38;4950727;29;20055;-78